<?xml version="1.0" encoding="UTF-8" standalone="no" ?>
<gpx xmlns="http://www.topografix.com/GPX/1/1" xmlns:xsi="http://www.w3.org/2001/XMLSchema-instance" xsi:schemaLocation="http://www.topografix.com/GPX/1/1 http://www.topografix.com/GPX/1/1/gpx.xsd" version="1.1" creator="VisuGPX - https://www.visugpx.com">
  <metadata>
    <name>Circuit du 04-01-2013</name>
    <desc><![CDATA[Circuit du 04-01-2013]]></desc>
  </metadata>
  <wpt lat="45.37646" lon="3.75139">
    <ele>704.59997558594</ele>
    <name><![CDATA[Start]]></name>
  </wpt>
  <wpt lat="45.38035" lon="3.7474">
    <ele>661.09997558594</ele>
    <name><![CDATA[Pause]]></name>
  </wpt>
  <wpt lat="45.38021" lon="3.74725">
    <ele>657.70001220703</ele>
    <name><![CDATA[Resume]]></name>
  </wpt>
  <wpt lat="45.37922" lon="3.74578">
    <ele>660</ele>
    <name><![CDATA[End]]></name>
  </wpt>
  <trk>
    <name><![CDATA[Circuit du 04-01-2013_1]]></name>
    <trkseg>
      <trkpt lat="45.37646" lon="3.75139">
        <ele>704.59997558594</ele>
        <time>2013-01-04T10:41:27Z</time>
      </trkpt>
      <trkpt lat="45.37646" lon="3.75147">
        <ele>702.59997558594</ele>
        <time>2013-01-04T10:41:31Z</time>
      </trkpt>
      <trkpt lat="45.37646" lon="3.75153">
        <ele>702.70001220703</ele>
        <time>2013-01-04T10:41:34Z</time>
      </trkpt>
      <trkpt lat="45.37647" lon="3.7516">
        <ele>703.09997558594</ele>
        <time>2013-01-04T10:41:37Z</time>
      </trkpt>
      <trkpt lat="45.37651" lon="3.75165">
        <ele>700.59997558594</ele>
        <time>2013-01-04T10:41:41Z</time>
      </trkpt>
      <trkpt lat="45.37652" lon="3.75173">
        <ele>702.79998779297</ele>
        <time>2013-01-04T10:41:47Z</time>
      </trkpt>
      <trkpt lat="45.37651" lon="3.75181">
        <ele>704.09997558594</ele>
        <time>2013-01-04T10:41:52Z</time>
      </trkpt>
      <trkpt lat="45.37649" lon="3.75205">
        <ele>702.40002441406</ele>
        <time>2013-01-04T10:41:58Z</time>
      </trkpt>
      <trkpt lat="45.37647" lon="3.7521">
        <ele>700.40002441406</ele>
        <time>2013-01-04T10:42:00Z</time>
      </trkpt>
      <trkpt lat="45.37644" lon="3.75217">
        <ele>699.79998779297</ele>
        <time>2013-01-04T10:42:03Z</time>
      </trkpt>
      <trkpt lat="45.37643" lon="3.75224">
        <ele>698.40002441406</ele>
        <time>2013-01-04T10:42:05Z</time>
      </trkpt>
      <trkpt lat="45.3764" lon="3.75244">
        <ele>690.29998779297</ele>
        <time>2013-01-04T10:42:18Z</time>
      </trkpt>
      <trkpt lat="45.37637" lon="3.75249">
        <ele>692.57739257812</ele>
        <time>2013-01-04T10:42:19Z</time>
      </trkpt>
      <trkpt lat="45.37635" lon="3.75257">
        <ele>694.20001220703</ele>
        <time>2013-01-04T10:42:21Z</time>
      </trkpt>
      <trkpt lat="45.37633" lon="3.75264">
        <ele>694.79998779297</ele>
        <time>2013-01-04T10:42:23Z</time>
      </trkpt>
      <trkpt lat="45.37633" lon="3.75271">
        <ele>693.79998779297</ele>
        <time>2013-01-04T10:42:26Z</time>
      </trkpt>
      <trkpt lat="45.37632" lon="3.75278">
        <ele>693.79998779297</ele>
        <time>2013-01-04T10:42:29Z</time>
      </trkpt>
      <trkpt lat="45.3763" lon="3.75286">
        <ele>693.79998779297</ele>
        <time>2013-01-04T10:42:32Z</time>
      </trkpt>
      <trkpt lat="45.37629" lon="3.75294">
        <ele>693.40002441406</ele>
        <time>2013-01-04T10:42:35Z</time>
      </trkpt>
      <trkpt lat="45.3763" lon="3.75302">
        <ele>687.70001220703</ele>
        <time>2013-01-04T10:42:38Z</time>
      </trkpt>
      <trkpt lat="45.37626" lon="3.75311">
        <ele>689.20001220703</ele>
        <time>2013-01-04T10:42:41Z</time>
      </trkpt>
      <trkpt lat="45.3762" lon="3.75313">
        <ele>684.40002441406</ele>
        <time>2013-01-04T10:42:49Z</time>
      </trkpt>
      <trkpt lat="45.37614" lon="3.7531">
        <ele>685.40002441406</ele>
        <time>2013-01-04T10:42:51Z</time>
      </trkpt>
      <trkpt lat="45.37598" lon="3.75304">
        <ele>683.20001220703</ele>
        <time>2013-01-04T10:42:57Z</time>
      </trkpt>
      <trkpt lat="45.37593" lon="3.75302">
        <ele>684.90002441406</ele>
        <time>2013-01-04T10:42:58Z</time>
      </trkpt>
      <trkpt lat="45.37589" lon="3.75296">
        <ele>684.90002441406</ele>
        <time>2013-01-04T10:43:02Z</time>
      </trkpt>
      <trkpt lat="45.37582" lon="3.75301">
        <ele>685.5</ele>
        <time>2013-01-04T10:43:05Z</time>
      </trkpt>
      <trkpt lat="45.37577" lon="3.75301">
        <ele>685.5</ele>
        <time>2013-01-04T10:43:06Z</time>
      </trkpt>
      <trkpt lat="45.37569" lon="3.753">
        <ele>684.40002441406</ele>
        <time>2013-01-04T10:43:13Z</time>
      </trkpt>
      <trkpt lat="45.37564" lon="3.75302">
        <ele>681.20001220703</ele>
        <time>2013-01-04T10:43:18Z</time>
      </trkpt>
      <trkpt lat="45.37555" lon="3.75306">
        <ele>680.90002441406</ele>
        <time>2013-01-04T10:43:21Z</time>
      </trkpt>
      <trkpt lat="45.37548" lon="3.75313">
        <ele>682.09997558594</ele>
        <time>2013-01-04T10:43:24Z</time>
      </trkpt>
      <trkpt lat="45.37542" lon="3.75319">
        <ele>683.70001220703</ele>
        <time>2013-01-04T10:43:26Z</time>
      </trkpt>
      <trkpt lat="45.37537" lon="3.75325">
        <ele>684.5</ele>
        <time>2013-01-04T10:43:30Z</time>
      </trkpt>
      <trkpt lat="45.37528" lon="3.75323">
        <ele>683.90002441406</ele>
        <time>2013-01-04T10:43:35Z</time>
      </trkpt>
      <trkpt lat="45.37525" lon="3.75329">
        <ele>684.70001220703</ele>
        <time>2013-01-04T10:43:38Z</time>
      </trkpt>
      <trkpt lat="45.3752" lon="3.75337">
        <ele>685.40002441406</ele>
        <time>2013-01-04T10:43:42Z</time>
      </trkpt>
      <trkpt lat="45.37517" lon="3.75349">
        <ele>687.29998779297</ele>
        <time>2013-01-04T10:43:45Z</time>
      </trkpt>
      <trkpt lat="45.37515" lon="3.75356">
        <ele>689.59997558594</ele>
        <time>2013-01-04T10:43:49Z</time>
      </trkpt>
      <trkpt lat="45.37515" lon="3.75364">
        <ele>691</ele>
        <time>2013-01-04T10:43:51Z</time>
      </trkpt>
      <trkpt lat="45.37514" lon="3.75373">
        <ele>690.59997558594</ele>
        <time>2013-01-04T10:43:54Z</time>
      </trkpt>
      <trkpt lat="45.37512" lon="3.75382">
        <ele>692.70001220703</ele>
        <time>2013-01-04T10:43:57Z</time>
      </trkpt>
      <trkpt lat="45.3751" lon="3.7539">
        <ele>692.09997558594</ele>
        <time>2013-01-04T10:44:00Z</time>
      </trkpt>
      <trkpt lat="45.37512" lon="3.75396">
        <ele>693.70001220703</ele>
        <time>2013-01-04T10:44:02Z</time>
      </trkpt>
      <trkpt lat="45.3751" lon="3.75408">
        <ele>691.70001220703</ele>
        <time>2013-01-04T10:44:07Z</time>
      </trkpt>
      <trkpt lat="45.37509" lon="3.75414">
        <ele>692.70001220703</ele>
        <time>2013-01-04T10:44:10Z</time>
      </trkpt>
      <trkpt lat="45.37508" lon="3.75422">
        <ele>689.20001220703</ele>
        <time>2013-01-04T10:44:15Z</time>
      </trkpt>
      <trkpt lat="45.3751" lon="3.75426">
        <ele>689.84436035156</ele>
        <time>2013-01-04T10:44:16Z</time>
      </trkpt>
      <trkpt lat="45.37503" lon="3.75446">
        <ele>691.79998779297</ele>
        <time>2013-01-04T10:44:27Z</time>
      </trkpt>
      <trkpt lat="45.37503" lon="3.75456">
        <ele>688.5</ele>
        <time>2013-01-04T10:44:31Z</time>
      </trkpt>
      <trkpt lat="45.37502" lon="3.75463">
        <ele>688.09997558594</ele>
        <time>2013-01-04T10:44:34Z</time>
      </trkpt>
      <trkpt lat="45.37498" lon="3.7547">
        <ele>689</ele>
        <time>2013-01-04T10:44:38Z</time>
      </trkpt>
      <trkpt lat="45.37495" lon="3.75477">
        <ele>691.29998779297</ele>
        <time>2013-01-04T10:44:40Z</time>
      </trkpt>
      <trkpt lat="45.3749" lon="3.75485">
        <ele>689.29998779297</ele>
        <time>2013-01-04T10:44:46Z</time>
      </trkpt>
      <trkpt lat="45.37486" lon="3.7549">
        <ele>690.20001220703</ele>
        <time>2013-01-04T10:44:49Z</time>
      </trkpt>
      <trkpt lat="45.37484" lon="3.75496">
        <ele>689.40002441406</ele>
        <time>2013-01-04T10:44:52Z</time>
      </trkpt>
      <trkpt lat="45.37478" lon="3.755">
        <ele>688.20001220703</ele>
        <time>2013-01-04T10:44:56Z</time>
      </trkpt>
      <trkpt lat="45.37479" lon="3.7551">
        <ele>686.90002441406</ele>
        <time>2013-01-04T10:45:00Z</time>
      </trkpt>
      <trkpt lat="45.37474" lon="3.75516">
        <ele>686.09997558594</ele>
        <time>2013-01-04T10:45:04Z</time>
      </trkpt>
      <trkpt lat="45.3747" lon="3.75519">
        <ele>685.59997558594</ele>
        <time>2013-01-04T10:45:06Z</time>
      </trkpt>
      <trkpt lat="45.37465" lon="3.75527">
        <ele>683.90002441406</ele>
        <time>2013-01-04T10:45:09Z</time>
      </trkpt>
      <trkpt lat="45.37464" lon="3.75535">
        <ele>682</ele>
        <time>2013-01-04T10:45:13Z</time>
      </trkpt>
      <trkpt lat="45.37462" lon="3.75541">
        <ele>681</ele>
        <time>2013-01-04T10:45:16Z</time>
      </trkpt>
      <trkpt lat="45.37461" lon="3.75549">
        <ele>679.59997558594</ele>
        <time>2013-01-04T10:45:20Z</time>
      </trkpt>
      <trkpt lat="45.37467" lon="3.75558">
        <ele>679.70001220703</ele>
        <time>2013-01-04T10:45:24Z</time>
      </trkpt>
      <trkpt lat="45.3747" lon="3.75565">
        <ele>680</ele>
        <time>2013-01-04T10:45:26Z</time>
      </trkpt>
      <trkpt lat="45.37473" lon="3.75574">
        <ele>680</ele>
        <time>2013-01-04T10:45:37Z</time>
      </trkpt>
      <trkpt lat="45.37473" lon="3.75581">
        <ele>679.90002441406</ele>
        <time>2013-01-04T10:45:44Z</time>
      </trkpt>
      <trkpt lat="45.37491" lon="3.7558">
        <ele>678.59997558594</ele>
        <time>2013-01-04T10:45:56Z</time>
      </trkpt>
      <trkpt lat="45.37493" lon="3.75587">
        <ele>681.20001220703</ele>
        <time>2013-01-04T10:45:57Z</time>
      </trkpt>
      <trkpt lat="45.37499" lon="3.75584">
        <ele>681</ele>
        <time>2013-01-04T10:45:59Z</time>
      </trkpt>
      <trkpt lat="45.37511" lon="3.7558">
        <ele>685.70001220703</ele>
        <time>2013-01-04T10:46:02Z</time>
      </trkpt>
      <trkpt lat="45.37522" lon="3.75582">
        <ele>685.20001220703</ele>
        <time>2013-01-04T10:46:06Z</time>
      </trkpt>
      <trkpt lat="45.37532" lon="3.7558">
        <ele>684.90002441406</ele>
        <time>2013-01-04T10:46:08Z</time>
      </trkpt>
      <trkpt lat="45.37538" lon="3.75576">
        <ele>681.70001220703</ele>
        <time>2013-01-04T10:46:10Z</time>
      </trkpt>
      <trkpt lat="45.37543" lon="3.75573">
        <ele>678.70001220703</ele>
        <time>2013-01-04T10:46:15Z</time>
      </trkpt>
      <trkpt lat="45.37548" lon="3.75568">
        <ele>675.40002441406</ele>
        <time>2013-01-04T10:46:18Z</time>
      </trkpt>
      <trkpt lat="45.37553" lon="3.75562">
        <ele>672.40002441406</ele>
        <time>2013-01-04T10:46:20Z</time>
      </trkpt>
      <trkpt lat="45.37558" lon="3.75558">
        <ele>671.79998779297</ele>
        <time>2013-01-04T10:46:24Z</time>
      </trkpt>
      <trkpt lat="45.37564" lon="3.75552">
        <ele>669.29998779297</ele>
        <time>2013-01-04T10:46:28Z</time>
      </trkpt>
      <trkpt lat="45.37571" lon="3.75549">
        <ele>672.09997558594</ele>
        <time>2013-01-04T10:46:32Z</time>
      </trkpt>
      <trkpt lat="45.37575" lon="3.75549">
        <ele>670.5</ele>
        <time>2013-01-04T10:46:37Z</time>
      </trkpt>
      <trkpt lat="45.37585" lon="3.75542">
        <ele>669</ele>
        <time>2013-01-04T10:46:41Z</time>
      </trkpt>
      <trkpt lat="45.37591" lon="3.75542">
        <ele>671.59997558594</ele>
        <time>2013-01-04T10:46:47Z</time>
      </trkpt>
      <trkpt lat="45.37601" lon="3.75549">
        <ele>668.79998779297</ele>
        <time>2013-01-04T10:47:00Z</time>
      </trkpt>
      <trkpt lat="45.37605" lon="3.75567">
        <ele>668.09997558594</ele>
        <time>2013-01-04T10:47:03Z</time>
      </trkpt>
      <trkpt lat="45.37609" lon="3.7557">
        <ele>668.45141601562</ele>
        <time>2013-01-04T10:47:04Z</time>
      </trkpt>
      <trkpt lat="45.37614" lon="3.75574">
        <ele>667.09997558594</ele>
        <time>2013-01-04T10:47:05Z</time>
      </trkpt>
      <trkpt lat="45.37617" lon="3.75579">
        <ele>666.90002441406</ele>
        <time>2013-01-04T10:47:07Z</time>
      </trkpt>
      <trkpt lat="45.37622" lon="3.75582">
        <ele>666.59997558594</ele>
        <time>2013-01-04T10:47:09Z</time>
      </trkpt>
      <trkpt lat="45.37625" lon="3.75591">
        <ele>666.59997558594</ele>
        <time>2013-01-04T10:47:12Z</time>
      </trkpt>
      <trkpt lat="45.3763" lon="3.75591">
        <ele>664.5</ele>
        <time>2013-01-04T10:47:15Z</time>
      </trkpt>
      <trkpt lat="45.37638" lon="3.75617">
        <ele>665.29998779297</ele>
        <time>2013-01-04T10:47:24Z</time>
      </trkpt>
      <trkpt lat="45.37641" lon="3.7563">
        <ele>663.09997558594</ele>
        <time>2013-01-04T10:47:31Z</time>
      </trkpt>
      <trkpt lat="45.3764" lon="3.75641">
        <ele>661.70001220703</ele>
        <time>2013-01-04T10:47:33Z</time>
      </trkpt>
      <trkpt lat="45.37642" lon="3.75649">
        <ele>663.09997558594</ele>
        <time>2013-01-04T10:47:36Z</time>
      </trkpt>
      <trkpt lat="45.37644" lon="3.75655">
        <ele>663.90002441406</ele>
        <time>2013-01-04T10:47:40Z</time>
      </trkpt>
      <trkpt lat="45.37647" lon="3.75666">
        <ele>663.79998779297</ele>
        <time>2013-01-04T10:47:47Z</time>
      </trkpt>
      <trkpt lat="45.37654" lon="3.75686">
        <ele>665.79998779297</ele>
        <time>2013-01-04T10:47:54Z</time>
      </trkpt>
      <trkpt lat="45.37661" lon="3.75711">
        <ele>665.29998779297</ele>
        <time>2013-01-04T10:48:03Z</time>
      </trkpt>
      <trkpt lat="45.37661" lon="3.75719">
        <ele>665.90002441406</ele>
        <time>2013-01-04T10:48:05Z</time>
      </trkpt>
      <trkpt lat="45.37661" lon="3.7573">
        <ele>664.29998779297</ele>
        <time>2013-01-04T10:48:08Z</time>
      </trkpt>
      <trkpt lat="45.37664" lon="3.75736">
        <ele>665.40002441406</ele>
        <time>2013-01-04T10:48:10Z</time>
      </trkpt>
      <trkpt lat="45.37667" lon="3.75743">
        <ele>664.29998779297</ele>
        <time>2013-01-04T10:48:13Z</time>
      </trkpt>
      <trkpt lat="45.37674" lon="3.75747">
        <ele>663.20001220703</ele>
        <time>2013-01-04T10:48:18Z</time>
      </trkpt>
      <trkpt lat="45.37682" lon="3.75753">
        <ele>665.20001220703</ele>
        <time>2013-01-04T10:48:23Z</time>
      </trkpt>
      <trkpt lat="45.37688" lon="3.75757">
        <ele>663.40002441406</ele>
        <time>2013-01-04T10:48:26Z</time>
      </trkpt>
      <trkpt lat="45.37694" lon="3.75759">
        <ele>663</ele>
        <time>2013-01-04T10:48:28Z</time>
      </trkpt>
      <trkpt lat="45.37701" lon="3.75756">
        <ele>663.20001220703</ele>
        <time>2013-01-04T10:48:31Z</time>
      </trkpt>
      <trkpt lat="45.37707" lon="3.75753">
        <ele>669.29998779297</ele>
        <time>2013-01-04T10:48:35Z</time>
      </trkpt>
      <trkpt lat="45.37706" lon="3.75745">
        <ele>669.29998779297</ele>
        <time>2013-01-04T10:48:38Z</time>
      </trkpt>
      <trkpt lat="45.37707" lon="3.75738">
        <ele>666</ele>
        <time>2013-01-04T10:48:42Z</time>
      </trkpt>
      <trkpt lat="45.3771" lon="3.75734">
        <ele>667.5</ele>
        <time>2013-01-04T10:48:45Z</time>
      </trkpt>
      <trkpt lat="45.37712" lon="3.75726">
        <ele>666.09997558594</ele>
        <time>2013-01-04T10:48:48Z</time>
      </trkpt>
      <trkpt lat="45.37714" lon="3.7572">
        <ele>666.90002441406</ele>
        <time>2013-01-04T10:48:51Z</time>
      </trkpt>
      <trkpt lat="45.37717" lon="3.75714">
        <ele>668.09997558594</ele>
        <time>2013-01-04T10:48:54Z</time>
      </trkpt>
      <trkpt lat="45.37719" lon="3.75707">
        <ele>669</ele>
        <time>2013-01-04T10:48:57Z</time>
      </trkpt>
      <trkpt lat="45.37733" lon="3.75692">
        <ele>673.90002441406</ele>
        <time>2013-01-04T10:49:06Z</time>
      </trkpt>
      <trkpt lat="45.37738" lon="3.75689">
        <ele>677</ele>
        <time>2013-01-04T10:49:10Z</time>
      </trkpt>
      <trkpt lat="45.37743" lon="3.75688">
        <ele>674.59997558594</ele>
        <time>2013-01-04T10:49:12Z</time>
      </trkpt>
      <trkpt lat="45.37749" lon="3.75682">
        <ele>675</ele>
        <time>2013-01-04T10:49:16Z</time>
      </trkpt>
      <trkpt lat="45.37754" lon="3.75681">
        <ele>677.79998779297</ele>
        <time>2013-01-04T10:49:19Z</time>
      </trkpt>
      <trkpt lat="45.3776" lon="3.7568">
        <ele>678.40002441406</ele>
        <time>2013-01-04T10:49:22Z</time>
      </trkpt>
      <trkpt lat="45.37765" lon="3.75678">
        <ele>678.5</ele>
        <time>2013-01-04T10:49:25Z</time>
      </trkpt>
      <trkpt lat="45.3777" lon="3.75676">
        <ele>677</ele>
        <time>2013-01-04T10:49:27Z</time>
      </trkpt>
      <trkpt lat="45.37776" lon="3.75674">
        <ele>675</ele>
        <time>2013-01-04T10:49:30Z</time>
      </trkpt>
      <trkpt lat="45.37781" lon="3.75671">
        <ele>675.90002441406</ele>
        <time>2013-01-04T10:49:33Z</time>
      </trkpt>
      <trkpt lat="45.37785" lon="3.75668">
        <ele>677.20001220703</ele>
        <time>2013-01-04T10:49:36Z</time>
      </trkpt>
      <trkpt lat="45.37789" lon="3.75663">
        <ele>677.40002441406</ele>
        <time>2013-01-04T10:49:40Z</time>
      </trkpt>
      <trkpt lat="45.37794" lon="3.75659">
        <ele>678.29998779297</ele>
        <time>2013-01-04T10:49:42Z</time>
      </trkpt>
      <trkpt lat="45.37799" lon="3.75656">
        <ele>677.79998779297</ele>
        <time>2013-01-04T10:49:45Z</time>
      </trkpt>
      <trkpt lat="45.37804" lon="3.75652">
        <ele>677.70001220703</ele>
        <time>2013-01-04T10:49:49Z</time>
      </trkpt>
      <trkpt lat="45.37816" lon="3.75642">
        <ele>677.40002441406</ele>
        <time>2013-01-04T10:49:56Z</time>
      </trkpt>
      <trkpt lat="45.3782" lon="3.7564">
        <ele>677.59997558594</ele>
        <time>2013-01-04T10:49:59Z</time>
      </trkpt>
      <trkpt lat="45.37825" lon="3.75636">
        <ele>679.70001220703</ele>
        <time>2013-01-04T10:50:01Z</time>
      </trkpt>
      <trkpt lat="45.3783" lon="3.75631">
        <ele>682.40002441406</ele>
        <time>2013-01-04T10:50:04Z</time>
      </trkpt>
      <trkpt lat="45.37834" lon="3.75626">
        <ele>681.29998779297</ele>
        <time>2013-01-04T10:50:07Z</time>
      </trkpt>
      <trkpt lat="45.3784" lon="3.75621">
        <ele>680.70001220703</ele>
        <time>2013-01-04T10:50:11Z</time>
      </trkpt>
      <trkpt lat="45.37845" lon="3.75617">
        <ele>681.90002441406</ele>
        <time>2013-01-04T10:50:13Z</time>
      </trkpt>
      <trkpt lat="45.37849" lon="3.75614">
        <ele>684</ele>
        <time>2013-01-04T10:50:15Z</time>
      </trkpt>
      <trkpt lat="45.37853" lon="3.75609">
        <ele>684.70001220703</ele>
        <time>2013-01-04T10:50:18Z</time>
      </trkpt>
      <trkpt lat="45.37857" lon="3.75606">
        <ele>682.90002441406</ele>
        <time>2013-01-04T10:50:21Z</time>
      </trkpt>
      <trkpt lat="45.37862" lon="3.75605">
        <ele>681.79998779297</ele>
        <time>2013-01-04T10:50:24Z</time>
      </trkpt>
      <trkpt lat="45.37867" lon="3.756">
        <ele>676.09997558594</ele>
        <time>2013-01-04T10:50:28Z</time>
      </trkpt>
      <trkpt lat="45.37871" lon="3.75598">
        <ele>676.59997558594</ele>
        <time>2013-01-04T10:50:30Z</time>
      </trkpt>
      <trkpt lat="45.37877" lon="3.75594">
        <ele>678.79998779297</ele>
        <time>2013-01-04T10:50:34Z</time>
      </trkpt>
      <trkpt lat="45.37882" lon="3.75592">
        <ele>677.09997558594</ele>
        <time>2013-01-04T10:50:37Z</time>
      </trkpt>
      <trkpt lat="45.37886" lon="3.75587">
        <ele>674.29998779297</ele>
        <time>2013-01-04T10:50:41Z</time>
      </trkpt>
      <trkpt lat="45.37891" lon="3.75584">
        <ele>675.09997558594</ele>
        <time>2013-01-04T10:50:44Z</time>
      </trkpt>
      <trkpt lat="45.37897" lon="3.75582">
        <ele>673.70001220703</ele>
        <time>2013-01-04T10:50:48Z</time>
      </trkpt>
      <trkpt lat="45.37901" lon="3.75578">
        <ele>672.5</ele>
        <time>2013-01-04T10:50:51Z</time>
      </trkpt>
      <trkpt lat="45.37906" lon="3.75573">
        <ele>671.20001220703</ele>
        <time>2013-01-04T10:50:54Z</time>
      </trkpt>
      <trkpt lat="45.37911" lon="3.75569">
        <ele>672.5</ele>
        <time>2013-01-04T10:50:58Z</time>
      </trkpt>
      <trkpt lat="45.37915" lon="3.75565">
        <ele>673.29998779297</ele>
        <time>2013-01-04T10:51:01Z</time>
      </trkpt>
      <trkpt lat="45.3792" lon="3.75561">
        <ele>672.09997558594</ele>
        <time>2013-01-04T10:51:04Z</time>
      </trkpt>
      <trkpt lat="45.37926" lon="3.75558">
        <ele>671</ele>
        <time>2013-01-04T10:51:08Z</time>
      </trkpt>
      <trkpt lat="45.3793" lon="3.75555">
        <ele>669.90002441406</ele>
        <time>2013-01-04T10:51:11Z</time>
      </trkpt>
      <trkpt lat="45.37936" lon="3.75551">
        <ele>669.90002441406</ele>
        <time>2013-01-04T10:51:14Z</time>
      </trkpt>
      <trkpt lat="45.37941" lon="3.7555">
        <ele>669.70001220703</ele>
        <time>2013-01-04T10:51:16Z</time>
      </trkpt>
      <trkpt lat="45.37946" lon="3.75547">
        <ele>668.90002441406</ele>
        <time>2013-01-04T10:51:20Z</time>
      </trkpt>
      <trkpt lat="45.3795" lon="3.75542">
        <ele>669.20001220703</ele>
        <time>2013-01-04T10:51:23Z</time>
      </trkpt>
      <trkpt lat="45.37955" lon="3.7554">
        <ele>669.09997558594</ele>
        <time>2013-01-04T10:51:25Z</time>
      </trkpt>
      <trkpt lat="45.37962" lon="3.75537">
        <ele>667.79998779297</ele>
        <time>2013-01-04T10:51:29Z</time>
      </trkpt>
      <trkpt lat="45.37966" lon="3.75535">
        <ele>666</ele>
        <time>2013-01-04T10:51:32Z</time>
      </trkpt>
      <trkpt lat="45.37971" lon="3.75529">
        <ele>665.09997558594</ele>
        <time>2013-01-04T10:51:35Z</time>
      </trkpt>
      <trkpt lat="45.37975" lon="3.75524">
        <ele>666.29998779297</ele>
        <time>2013-01-04T10:51:37Z</time>
      </trkpt>
      <trkpt lat="45.37981" lon="3.75522">
        <ele>666.5</ele>
        <time>2013-01-04T10:51:39Z</time>
      </trkpt>
      <trkpt lat="45.37984" lon="3.75518">
        <ele>667.09997558594</ele>
        <time>2013-01-04T10:51:42Z</time>
      </trkpt>
      <trkpt lat="45.37989" lon="3.75515">
        <ele>666.90002441406</ele>
        <time>2013-01-04T10:51:45Z</time>
      </trkpt>
      <trkpt lat="45.37994" lon="3.7551">
        <ele>666.29998779297</ele>
        <time>2013-01-04T10:51:48Z</time>
      </trkpt>
      <trkpt lat="45.37999" lon="3.75506">
        <ele>665.59997558594</ele>
        <time>2013-01-04T10:51:51Z</time>
      </trkpt>
      <trkpt lat="45.38004" lon="3.75504">
        <ele>666</ele>
        <time>2013-01-04T10:51:54Z</time>
      </trkpt>
      <trkpt lat="45.38008" lon="3.755">
        <ele>664.59997558594</ele>
        <time>2013-01-04T10:51:57Z</time>
      </trkpt>
      <trkpt lat="45.38013" lon="3.75496">
        <ele>664.70001220703</ele>
        <time>2013-01-04T10:52:00Z</time>
      </trkpt>
      <trkpt lat="45.38019" lon="3.75493">
        <ele>664.90002441406</ele>
        <time>2013-01-04T10:52:03Z</time>
      </trkpt>
      <trkpt lat="45.38025" lon="3.75491">
        <ele>664.59997558594</ele>
        <time>2013-01-04T10:52:06Z</time>
      </trkpt>
      <trkpt lat="45.3803" lon="3.75488">
        <ele>665.70001220703</ele>
        <time>2013-01-04T10:52:09Z</time>
      </trkpt>
      <trkpt lat="45.38035" lon="3.75484">
        <ele>664.59997558594</ele>
        <time>2013-01-04T10:52:12Z</time>
      </trkpt>
      <trkpt lat="45.38039" lon="3.75482">
        <ele>665.20001220703</ele>
        <time>2013-01-04T10:52:14Z</time>
      </trkpt>
      <trkpt lat="45.38044" lon="3.75479">
        <ele>666.79998779297</ele>
        <time>2013-01-04T10:52:16Z</time>
      </trkpt>
      <trkpt lat="45.38049" lon="3.75476">
        <ele>666</ele>
        <time>2013-01-04T10:52:19Z</time>
      </trkpt>
      <trkpt lat="45.38053" lon="3.75471">
        <ele>666</ele>
        <time>2013-01-04T10:52:22Z</time>
      </trkpt>
      <trkpt lat="45.38058" lon="3.75468">
        <ele>665.70001220703</ele>
        <time>2013-01-04T10:52:25Z</time>
      </trkpt>
      <trkpt lat="45.38063" lon="3.75465">
        <ele>664.90002441406</ele>
        <time>2013-01-04T10:52:28Z</time>
      </trkpt>
      <trkpt lat="45.38068" lon="3.75459">
        <ele>663.5</ele>
        <time>2013-01-04T10:52:31Z</time>
      </trkpt>
      <trkpt lat="45.38072" lon="3.75454">
        <ele>664</ele>
        <time>2013-01-04T10:52:34Z</time>
      </trkpt>
      <trkpt lat="45.38076" lon="3.75448">
        <ele>664.5</ele>
        <time>2013-01-04T10:52:37Z</time>
      </trkpt>
      <trkpt lat="45.38081" lon="3.75444">
        <ele>663.79998779297</ele>
        <time>2013-01-04T10:52:40Z</time>
      </trkpt>
      <trkpt lat="45.38084" lon="3.75439">
        <ele>663.79998779297</ele>
        <time>2013-01-04T10:52:43Z</time>
      </trkpt>
      <trkpt lat="45.38089" lon="3.75434">
        <ele>664.20001220703</ele>
        <time>2013-01-04T10:52:46Z</time>
      </trkpt>
      <trkpt lat="45.38093" lon="3.75428">
        <ele>664.79998779297</ele>
        <time>2013-01-04T10:52:49Z</time>
      </trkpt>
      <trkpt lat="45.381" lon="3.75422">
        <ele>665.79998779297</ele>
        <time>2013-01-04T10:52:53Z</time>
      </trkpt>
      <trkpt lat="45.38104" lon="3.75417">
        <ele>665.79998779297</ele>
        <time>2013-01-04T10:52:56Z</time>
      </trkpt>
      <trkpt lat="45.38106" lon="3.75411">
        <ele>660.79998779297</ele>
        <time>2013-01-04T10:53:01Z</time>
      </trkpt>
      <trkpt lat="45.38108" lon="3.75405">
        <ele>661.59997558594</ele>
        <time>2013-01-04T10:53:03Z</time>
      </trkpt>
      <trkpt lat="45.38112" lon="3.75402">
        <ele>662.40002441406</ele>
        <time>2013-01-04T10:53:05Z</time>
      </trkpt>
      <trkpt lat="45.38115" lon="3.75397">
        <ele>663</ele>
        <time>2013-01-04T10:53:07Z</time>
      </trkpt>
      <trkpt lat="45.38122" lon="3.75392">
        <ele>664.09997558594</ele>
        <time>2013-01-04T10:53:21Z</time>
      </trkpt>
      <trkpt lat="45.38127" lon="3.75387">
        <ele>666.40002441406</ele>
        <time>2013-01-04T10:53:23Z</time>
      </trkpt>
      <trkpt lat="45.38134" lon="3.75383">
        <ele>667.29998779297</ele>
        <time>2013-01-04T10:53:26Z</time>
      </trkpt>
      <trkpt lat="45.38148" lon="3.75368">
        <ele>660.79998779297</ele>
        <time>2013-01-04T10:53:34Z</time>
      </trkpt>
      <trkpt lat="45.38151" lon="3.75365">
        <ele>661.70001220703</ele>
        <time>2013-01-04T10:53:36Z</time>
      </trkpt>
      <trkpt lat="45.38156" lon="3.75359">
        <ele>662.09997558594</ele>
        <time>2013-01-04T10:53:39Z</time>
      </trkpt>
      <trkpt lat="45.38162" lon="3.75352">
        <ele>664.40002441406</ele>
        <time>2013-01-04T10:53:42Z</time>
      </trkpt>
      <trkpt lat="45.38165" lon="3.75344">
        <ele>662.90002441406</ele>
        <time>2013-01-04T10:53:44Z</time>
      </trkpt>
      <trkpt lat="45.38171" lon="3.7534">
        <ele>663</ele>
        <time>2013-01-04T10:53:48Z</time>
      </trkpt>
      <trkpt lat="45.38175" lon="3.75336">
        <ele>660.59997558594</ele>
        <time>2013-01-04T10:53:52Z</time>
      </trkpt>
      <trkpt lat="45.38179" lon="3.75331">
        <ele>660.79998779297</ele>
        <time>2013-01-04T10:53:56Z</time>
      </trkpt>
      <trkpt lat="45.38184" lon="3.75329">
        <ele>661.40002441406</ele>
        <time>2013-01-04T10:53:59Z</time>
      </trkpt>
      <trkpt lat="45.38188" lon="3.75326">
        <ele>662.09997558594</ele>
        <time>2013-01-04T10:54:01Z</time>
      </trkpt>
      <trkpt lat="45.38192" lon="3.75322">
        <ele>663.5</ele>
        <time>2013-01-04T10:54:03Z</time>
      </trkpt>
      <trkpt lat="45.38197" lon="3.75316">
        <ele>663.79998779297</ele>
        <time>2013-01-04T10:54:07Z</time>
      </trkpt>
      <trkpt lat="45.38201" lon="3.75311">
        <ele>665.29998779297</ele>
        <time>2013-01-04T10:54:09Z</time>
      </trkpt>
      <trkpt lat="45.38206" lon="3.75306">
        <ele>663.5</ele>
        <time>2013-01-04T10:54:13Z</time>
      </trkpt>
      <trkpt lat="45.38218" lon="3.75288">
        <ele>664.70001220703</ele>
        <time>2013-01-04T10:54:22Z</time>
      </trkpt>
      <trkpt lat="45.38222" lon="3.75286">
        <ele>664.79998779297</ele>
        <time>2013-01-04T10:54:23Z</time>
      </trkpt>
      <trkpt lat="45.38227" lon="3.75282">
        <ele>666.79998779297</ele>
        <time>2013-01-04T10:54:26Z</time>
      </trkpt>
      <trkpt lat="45.3823" lon="3.75277">
        <ele>667.40002441406</ele>
        <time>2013-01-04T10:54:29Z</time>
      </trkpt>
      <trkpt lat="45.38234" lon="3.75271">
        <ele>664.79998779297</ele>
        <time>2013-01-04T10:54:35Z</time>
      </trkpt>
      <trkpt lat="45.38241" lon="3.75265">
        <ele>666.09997558594</ele>
        <time>2013-01-04T10:54:38Z</time>
      </trkpt>
      <trkpt lat="45.38246" lon="3.75265">
        <ele>664.79998779297</ele>
        <time>2013-01-04T10:54:41Z</time>
      </trkpt>
      <trkpt lat="45.3825" lon="3.7526">
        <ele>664.40002441406</ele>
        <time>2013-01-04T10:54:43Z</time>
      </trkpt>
      <trkpt lat="45.38254" lon="3.75258">
        <ele>664.90002441406</ele>
        <time>2013-01-04T10:54:46Z</time>
      </trkpt>
      <trkpt lat="45.38255" lon="3.75245">
        <ele>664.59997558594</ele>
        <time>2013-01-04T10:54:50Z</time>
      </trkpt>
      <trkpt lat="45.38269" lon="3.7523">
        <ele>665.09997558594</ele>
        <time>2013-01-04T10:55:01Z</time>
      </trkpt>
      <trkpt lat="45.38269" lon="3.75222">
        <ele>662.79998779297</ele>
        <time>2013-01-04T10:55:04Z</time>
      </trkpt>
      <trkpt lat="45.38269" lon="3.75211">
        <ele>658.79998779297</ele>
        <time>2013-01-04T10:55:06Z</time>
      </trkpt>
      <trkpt lat="45.38274" lon="3.75205">
        <ele>656.09997558594</ele>
        <time>2013-01-04T10:55:07Z</time>
      </trkpt>
      <trkpt lat="45.38275" lon="3.75198">
        <ele>656.90002441406</ele>
        <time>2013-01-04T10:55:08Z</time>
      </trkpt>
      <trkpt lat="45.38284" lon="3.75193">
        <ele>658.59997558594</ele>
        <time>2013-01-04T10:55:10Z</time>
      </trkpt>
      <trkpt lat="45.38285" lon="3.75183">
        <ele>659.40002441406</ele>
        <time>2013-01-04T10:55:13Z</time>
      </trkpt>
      <trkpt lat="45.3829" lon="3.75177">
        <ele>660.09997558594</ele>
        <time>2013-01-04T10:55:15Z</time>
      </trkpt>
      <trkpt lat="45.38294" lon="3.75171">
        <ele>661.70001220703</ele>
        <time>2013-01-04T10:55:18Z</time>
      </trkpt>
      <trkpt lat="45.38295" lon="3.75163">
        <ele>660.40002441406</ele>
        <time>2013-01-04T10:55:21Z</time>
      </trkpt>
      <trkpt lat="45.38299" lon="3.75155">
        <ele>659.70001220703</ele>
        <time>2013-01-04T10:55:25Z</time>
      </trkpt>
      <trkpt lat="45.38304" lon="3.75136">
        <ele>665.29998779297</ele>
        <time>2013-01-04T10:55:32Z</time>
      </trkpt>
      <trkpt lat="45.38306" lon="3.75128">
        <ele>664.59997558594</ele>
        <time>2013-01-04T10:55:36Z</time>
      </trkpt>
      <trkpt lat="45.38308" lon="3.75122">
        <ele>665.29998779297</ele>
        <time>2013-01-04T10:55:38Z</time>
      </trkpt>
      <trkpt lat="45.38315" lon="3.7512">
        <ele>661.70001220703</ele>
        <time>2013-01-04T10:55:45Z</time>
      </trkpt>
      <trkpt lat="45.38319" lon="3.75118">
        <ele>660.09997558594</ele>
        <time>2013-01-04T10:55:48Z</time>
      </trkpt>
      <trkpt lat="45.38321" lon="3.75112">
        <ele>661.09997558594</ele>
        <time>2013-01-04T10:55:51Z</time>
      </trkpt>
      <trkpt lat="45.38326" lon="3.75108">
        <ele>659.09997558594</ele>
        <time>2013-01-04T10:55:54Z</time>
      </trkpt>
      <trkpt lat="45.38335" lon="3.75102">
        <ele>660.59997558594</ele>
        <time>2013-01-04T10:55:58Z</time>
      </trkpt>
      <trkpt lat="45.3834" lon="3.75096">
        <ele>662.09997558594</ele>
        <time>2013-01-04T10:56:01Z</time>
      </trkpt>
      <trkpt lat="45.38346" lon="3.75085">
        <ele>661</ele>
        <time>2013-01-04T10:56:06Z</time>
      </trkpt>
      <trkpt lat="45.38349" lon="3.75067">
        <ele>657.79998779297</ele>
        <time>2013-01-04T10:56:14Z</time>
      </trkpt>
      <trkpt lat="45.38345" lon="3.75062">
        <ele>658</ele>
        <time>2013-01-04T10:56:16Z</time>
      </trkpt>
      <trkpt lat="45.38345" lon="3.75053">
        <ele>657.29998779297</ele>
        <time>2013-01-04T10:56:19Z</time>
      </trkpt>
      <trkpt lat="45.38349" lon="3.75045">
        <ele>658.59997558594</ele>
        <time>2013-01-04T10:56:21Z</time>
      </trkpt>
      <trkpt lat="45.38357" lon="3.75025">
        <ele>660.59997558594</ele>
        <time>2013-01-04T10:56:27Z</time>
      </trkpt>
      <trkpt lat="45.3836" lon="3.75019">
        <ele>661.09997558594</ele>
        <time>2013-01-04T10:56:29Z</time>
      </trkpt>
      <trkpt lat="45.38363" lon="3.75011">
        <ele>661.29998779297</ele>
        <time>2013-01-04T10:56:32Z</time>
      </trkpt>
      <trkpt lat="45.38362" lon="3.75003">
        <ele>662.59997558594</ele>
        <time>2013-01-04T10:56:34Z</time>
      </trkpt>
      <trkpt lat="45.38363" lon="3.74996">
        <ele>661.20001220703</ele>
        <time>2013-01-04T10:56:37Z</time>
      </trkpt>
      <trkpt lat="45.38367" lon="3.74998">
        <ele>655.29998779297</ele>
        <time>2013-01-04T10:56:41Z</time>
      </trkpt>
      <trkpt lat="45.38372" lon="3.7499">
        <ele>655.70001220703</ele>
        <time>2013-01-04T10:56:45Z</time>
      </trkpt>
      <trkpt lat="45.38375" lon="3.74981">
        <ele>655.70001220703</ele>
        <time>2013-01-04T10:56:48Z</time>
      </trkpt>
      <trkpt lat="45.3838" lon="3.74977">
        <ele>653.90002441406</ele>
        <time>2013-01-04T10:56:52Z</time>
      </trkpt>
      <trkpt lat="45.38382" lon="3.74971">
        <ele>654</ele>
        <time>2013-01-04T10:56:55Z</time>
      </trkpt>
      <trkpt lat="45.38385" lon="3.74965">
        <ele>653.59997558594</ele>
        <time>2013-01-04T10:56:58Z</time>
      </trkpt>
      <trkpt lat="45.38389" lon="3.74955">
        <ele>652.90002441406</ele>
        <time>2013-01-04T10:57:02Z</time>
      </trkpt>
      <trkpt lat="45.38392" lon="3.74949">
        <ele>653.20001220703</ele>
        <time>2013-01-04T10:57:05Z</time>
      </trkpt>
      <trkpt lat="45.38398" lon="3.74942">
        <ele>654.20001220703</ele>
        <time>2013-01-04T10:57:08Z</time>
      </trkpt>
      <trkpt lat="45.38402" lon="3.74938">
        <ele>651.59997558594</ele>
        <time>2013-01-04T10:57:12Z</time>
      </trkpt>
      <trkpt lat="45.38406" lon="3.74934">
        <ele>651.40002441406</ele>
        <time>2013-01-04T10:57:16Z</time>
      </trkpt>
      <trkpt lat="45.38409" lon="3.74921">
        <ele>650.70001220703</ele>
        <time>2013-01-04T10:57:19Z</time>
      </trkpt>
      <trkpt lat="45.38418" lon="3.74906">
        <ele>652.29998779297</ele>
        <time>2013-01-04T10:57:26Z</time>
      </trkpt>
      <trkpt lat="45.38422" lon="3.74901">
        <ele>651.59997558594</ele>
        <time>2013-01-04T10:57:29Z</time>
      </trkpt>
      <trkpt lat="45.38426" lon="3.74895">
        <ele>649.20001220703</ele>
        <time>2013-01-04T10:57:32Z</time>
      </trkpt>
      <trkpt lat="45.38429" lon="3.74889">
        <ele>644.79998779297</ele>
        <time>2013-01-04T10:57:37Z</time>
      </trkpt>
      <trkpt lat="45.38433" lon="3.74885">
        <ele>641.59997558594</ele>
        <time>2013-01-04T10:57:41Z</time>
      </trkpt>
      <trkpt lat="45.38437" lon="3.74875">
        <ele>641.70001220703</ele>
        <time>2013-01-04T10:57:46Z</time>
      </trkpt>
      <trkpt lat="45.38439" lon="3.74867">
        <ele>642</ele>
        <time>2013-01-04T10:57:49Z</time>
      </trkpt>
      <trkpt lat="45.38442" lon="3.74862">
        <ele>642.09997558594</ele>
        <time>2013-01-04T10:57:51Z</time>
      </trkpt>
      <trkpt lat="45.38445" lon="3.74857">
        <ele>643</ele>
        <time>2013-01-04T10:57:53Z</time>
      </trkpt>
      <trkpt lat="45.38448" lon="3.74851">
        <ele>643.29998779297</ele>
        <time>2013-01-04T10:57:56Z</time>
      </trkpt>
      <trkpt lat="45.38452" lon="3.74845">
        <ele>642</ele>
        <time>2013-01-04T10:57:59Z</time>
      </trkpt>
      <trkpt lat="45.38456" lon="3.74839">
        <ele>641.20001220703</ele>
        <time>2013-01-04T10:58:02Z</time>
      </trkpt>
      <trkpt lat="45.38459" lon="3.74833">
        <ele>639.90002441406</ele>
        <time>2013-01-04T10:58:05Z</time>
      </trkpt>
      <trkpt lat="45.38462" lon="3.74826">
        <ele>640.59997558594</ele>
        <time>2013-01-04T10:58:08Z</time>
      </trkpt>
      <trkpt lat="45.38466" lon="3.74821">
        <ele>639.40002441406</ele>
        <time>2013-01-04T10:58:11Z</time>
      </trkpt>
      <trkpt lat="45.38469" lon="3.74816">
        <ele>640.90002441406</ele>
        <time>2013-01-04T10:58:13Z</time>
      </trkpt>
      <trkpt lat="45.38472" lon="3.74811">
        <ele>642</ele>
        <time>2013-01-04T10:58:15Z</time>
      </trkpt>
      <trkpt lat="45.38475" lon="3.74805">
        <ele>642.09997558594</ele>
        <time>2013-01-04T10:58:18Z</time>
      </trkpt>
      <trkpt lat="45.38478" lon="3.74798">
        <ele>641.90002441406</ele>
        <time>2013-01-04T10:58:21Z</time>
      </trkpt>
      <trkpt lat="45.38481" lon="3.74792">
        <ele>645.09997558594</ele>
        <time>2013-01-04T10:58:24Z</time>
      </trkpt>
      <trkpt lat="45.38484" lon="3.74784">
        <ele>643.29998779297</ele>
        <time>2013-01-04T10:58:27Z</time>
      </trkpt>
      <trkpt lat="45.38487" lon="3.74779">
        <ele>642.09997558594</ele>
        <time>2013-01-04T10:58:29Z</time>
      </trkpt>
      <trkpt lat="45.3849" lon="3.74773">
        <ele>643.09997558594</ele>
        <time>2013-01-04T10:58:32Z</time>
      </trkpt>
      <trkpt lat="45.38494" lon="3.74768">
        <ele>643.5</ele>
        <time>2013-01-04T10:58:35Z</time>
      </trkpt>
      <trkpt lat="45.38498" lon="3.74761">
        <ele>643.70001220703</ele>
        <time>2013-01-04T10:58:38Z</time>
      </trkpt>
      <trkpt lat="45.38502" lon="3.74756">
        <ele>645.09997558594</ele>
        <time>2013-01-04T10:58:40Z</time>
      </trkpt>
      <trkpt lat="45.38506" lon="3.7475">
        <ele>645.90002441406</ele>
        <time>2013-01-04T10:58:42Z</time>
      </trkpt>
      <trkpt lat="45.38509" lon="3.74745">
        <ele>646</ele>
        <time>2013-01-04T10:58:45Z</time>
      </trkpt>
      <trkpt lat="45.38514" lon="3.74737">
        <ele>645.79998779297</ele>
        <time>2013-01-04T10:58:49Z</time>
      </trkpt>
      <trkpt lat="45.38519" lon="3.74729">
        <ele>645.90002441406</ele>
        <time>2013-01-04T10:58:52Z</time>
      </trkpt>
      <trkpt lat="45.3852" lon="3.74723">
        <ele>640.79998779297</ele>
        <time>2013-01-04T10:58:56Z</time>
      </trkpt>
      <trkpt lat="45.38524" lon="3.74716">
        <ele>640.59997558594</ele>
        <time>2013-01-04T10:58:59Z</time>
      </trkpt>
      <trkpt lat="45.38527" lon="3.7471">
        <ele>639.09997558594</ele>
        <time>2013-01-04T10:59:03Z</time>
      </trkpt>
      <trkpt lat="45.38531" lon="3.74701">
        <ele>638.09997558594</ele>
        <time>2013-01-04T10:59:07Z</time>
      </trkpt>
      <trkpt lat="45.38534" lon="3.74695">
        <ele>638.40002441406</ele>
        <time>2013-01-04T10:59:10Z</time>
      </trkpt>
      <trkpt lat="45.38537" lon="3.74689">
        <ele>638.40002441406</ele>
        <time>2013-01-04T10:59:12Z</time>
      </trkpt>
      <trkpt lat="45.38542" lon="3.74684">
        <ele>639.70001220703</ele>
        <time>2013-01-04T10:59:15Z</time>
      </trkpt>
      <trkpt lat="45.38545" lon="3.74677">
        <ele>640.09997558594</ele>
        <time>2013-01-04T10:59:18Z</time>
      </trkpt>
      <trkpt lat="45.38549" lon="3.7467">
        <ele>639.09997558594</ele>
        <time>2013-01-04T10:59:21Z</time>
      </trkpt>
      <trkpt lat="45.38552" lon="3.74663">
        <ele>636</ele>
        <time>2013-01-04T10:59:25Z</time>
      </trkpt>
      <trkpt lat="45.38558" lon="3.74649">
        <ele>638.79998779297</ele>
        <time>2013-01-04T10:59:30Z</time>
      </trkpt>
      <trkpt lat="45.38562" lon="3.74643">
        <ele>639.79998779297</ele>
        <time>2013-01-04T10:59:33Z</time>
      </trkpt>
      <trkpt lat="45.38565" lon="3.74638">
        <ele>639.5</ele>
        <time>2013-01-04T10:59:36Z</time>
      </trkpt>
      <trkpt lat="45.38568" lon="3.74629">
        <ele>639.09997558594</ele>
        <time>2013-01-04T10:59:40Z</time>
      </trkpt>
      <trkpt lat="45.38574" lon="3.74622">
        <ele>641.70001220703</ele>
        <time>2013-01-04T10:59:43Z</time>
      </trkpt>
      <trkpt lat="45.38577" lon="3.74617">
        <ele>643</ele>
        <time>2013-01-04T10:59:45Z</time>
      </trkpt>
      <trkpt lat="45.38581" lon="3.74611">
        <ele>644.29998779297</ele>
        <time>2013-01-04T10:59:48Z</time>
      </trkpt>
      <trkpt lat="45.38585" lon="3.74603">
        <ele>644</ele>
        <time>2013-01-04T10:59:51Z</time>
      </trkpt>
      <trkpt lat="45.38589" lon="3.74596">
        <ele>643.79998779297</ele>
        <time>2013-01-04T10:59:55Z</time>
      </trkpt>
      <trkpt lat="45.38593" lon="3.7459">
        <ele>644.29998779297</ele>
        <time>2013-01-04T10:59:58Z</time>
      </trkpt>
      <trkpt lat="45.38596" lon="3.74583">
        <ele>644.5</ele>
        <time>2013-01-04T11:00:02Z</time>
      </trkpt>
      <trkpt lat="45.38599" lon="3.74576">
        <ele>643.59997558594</ele>
        <time>2013-01-04T11:00:06Z</time>
      </trkpt>
      <trkpt lat="45.38601" lon="3.74568">
        <ele>642.5</ele>
        <time>2013-01-04T11:00:09Z</time>
      </trkpt>
      <trkpt lat="45.38606" lon="3.74563">
        <ele>646.29998779297</ele>
        <time>2013-01-04T11:00:11Z</time>
      </trkpt>
      <trkpt lat="45.38611" lon="3.74559">
        <ele>645.09997558594</ele>
        <time>2013-01-04T11:00:15Z</time>
      </trkpt>
      <trkpt lat="45.38614" lon="3.74555">
        <ele>645.09997558594</ele>
        <time>2013-01-04T11:00:17Z</time>
      </trkpt>
      <trkpt lat="45.3862" lon="3.7455">
        <ele>645.70001220703</ele>
        <time>2013-01-04T11:00:20Z</time>
      </trkpt>
      <trkpt lat="45.38624" lon="3.74544">
        <ele>648.70001220703</ele>
        <time>2013-01-04T11:00:23Z</time>
      </trkpt>
      <trkpt lat="45.3863" lon="3.7454">
        <ele>648</ele>
        <time>2013-01-04T11:00:27Z</time>
      </trkpt>
      <trkpt lat="45.38636" lon="3.74534">
        <ele>647.59997558594</ele>
        <time>2013-01-04T11:00:31Z</time>
      </trkpt>
      <trkpt lat="45.38641" lon="3.74531">
        <ele>646.40002441406</ele>
        <time>2013-01-04T11:00:34Z</time>
      </trkpt>
      <trkpt lat="45.38646" lon="3.74526">
        <ele>646.20001220703</ele>
        <time>2013-01-04T11:00:37Z</time>
      </trkpt>
      <trkpt lat="45.38651" lon="3.74524">
        <ele>647.20001220703</ele>
        <time>2013-01-04T11:00:40Z</time>
      </trkpt>
      <trkpt lat="45.38654" lon="3.74517">
        <ele>647.79998779297</ele>
        <time>2013-01-04T11:00:42Z</time>
      </trkpt>
      <trkpt lat="45.3866" lon="3.74514">
        <ele>649.29998779297</ele>
        <time>2013-01-04T11:00:45Z</time>
      </trkpt>
      <trkpt lat="45.38664" lon="3.7451">
        <ele>649.70001220703</ele>
        <time>2013-01-04T11:00:48Z</time>
      </trkpt>
      <trkpt lat="45.38668" lon="3.74506">
        <ele>649.09997558594</ele>
        <time>2013-01-04T11:00:50Z</time>
      </trkpt>
      <trkpt lat="45.38679" lon="3.74497">
        <ele>645.20001220703</ele>
        <time>2013-01-04T11:00:56Z</time>
      </trkpt>
      <trkpt lat="45.38685" lon="3.74492">
        <ele>644.59997558594</ele>
        <time>2013-01-04T11:00:59Z</time>
      </trkpt>
      <trkpt lat="45.38689" lon="3.74487">
        <ele>643.70001220703</ele>
        <time>2013-01-04T11:01:02Z</time>
      </trkpt>
      <trkpt lat="45.38694" lon="3.74485">
        <ele>642.29998779297</ele>
        <time>2013-01-04T11:01:04Z</time>
      </trkpt>
      <trkpt lat="45.38698" lon="3.74481">
        <ele>641.29998779297</ele>
        <time>2013-01-04T11:01:07Z</time>
      </trkpt>
      <trkpt lat="45.38706" lon="3.74476">
        <ele>643.59997558594</ele>
        <time>2013-01-04T11:01:11Z</time>
      </trkpt>
      <trkpt lat="45.3871" lon="3.74472">
        <ele>642.5</ele>
        <time>2013-01-04T11:01:14Z</time>
      </trkpt>
      <trkpt lat="45.38715" lon="3.74469">
        <ele>643.5</ele>
        <time>2013-01-04T11:01:17Z</time>
      </trkpt>
      <trkpt lat="45.3872" lon="3.74464">
        <ele>643.20001220703</ele>
        <time>2013-01-04T11:01:20Z</time>
      </trkpt>
      <trkpt lat="45.38726" lon="3.74461">
        <ele>644.09997558594</ele>
        <time>2013-01-04T11:01:23Z</time>
      </trkpt>
      <trkpt lat="45.38729" lon="3.74457">
        <ele>643.20001220703</ele>
        <time>2013-01-04T11:01:25Z</time>
      </trkpt>
      <trkpt lat="45.38738" lon="3.74451">
        <ele>645.79998779297</ele>
        <time>2013-01-04T11:01:29Z</time>
      </trkpt>
      <trkpt lat="45.38746" lon="3.74443">
        <ele>645</ele>
        <time>2013-01-04T11:01:36Z</time>
      </trkpt>
      <trkpt lat="45.3875" lon="3.74437">
        <ele>644.90002441406</ele>
        <time>2013-01-04T11:01:38Z</time>
      </trkpt>
      <trkpt lat="45.38753" lon="3.74433">
        <ele>647.20001220703</ele>
        <time>2013-01-04T11:01:40Z</time>
      </trkpt>
      <trkpt lat="45.38763" lon="3.74427">
        <ele>648.90002441406</ele>
        <time>2013-01-04T11:01:44Z</time>
      </trkpt>
      <trkpt lat="45.38767" lon="3.74421">
        <ele>649.40002441406</ele>
        <time>2013-01-04T11:01:46Z</time>
      </trkpt>
      <trkpt lat="45.38773" lon="3.74416">
        <ele>651.09997558594</ele>
        <time>2013-01-04T11:01:49Z</time>
      </trkpt>
      <trkpt lat="45.38779" lon="3.74412">
        <ele>651.29998779297</ele>
        <time>2013-01-04T11:01:52Z</time>
      </trkpt>
      <trkpt lat="45.38784" lon="3.74409">
        <ele>652.70001220703</ele>
        <time>2013-01-04T11:01:55Z</time>
      </trkpt>
      <trkpt lat="45.3879" lon="3.74405">
        <ele>651.29998779297</ele>
        <time>2013-01-04T11:01:58Z</time>
      </trkpt>
      <trkpt lat="45.38794" lon="3.74402">
        <ele>652</ele>
        <time>2013-01-04T11:02:01Z</time>
      </trkpt>
      <trkpt lat="45.38798" lon="3.74398">
        <ele>651</ele>
        <time>2013-01-04T11:02:03Z</time>
      </trkpt>
      <trkpt lat="45.38805" lon="3.74393">
        <ele>653.09997558594</ele>
        <time>2013-01-04T11:02:06Z</time>
      </trkpt>
      <trkpt lat="45.3881" lon="3.74386">
        <ele>653.29998779297</ele>
        <time>2013-01-04T11:02:09Z</time>
      </trkpt>
      <trkpt lat="45.38813" lon="3.74379">
        <ele>653.90002441406</ele>
        <time>2013-01-04T11:02:12Z</time>
      </trkpt>
      <trkpt lat="45.38816" lon="3.74374">
        <ele>653.70001220703</ele>
        <time>2013-01-04T11:02:14Z</time>
      </trkpt>
      <trkpt lat="45.38818" lon="3.74367">
        <ele>652.40002441406</ele>
        <time>2013-01-04T11:02:17Z</time>
      </trkpt>
      <trkpt lat="45.38816" lon="3.74361">
        <ele>650.40002441406</ele>
        <time>2013-01-04T11:02:20Z</time>
      </trkpt>
      <trkpt lat="45.38817" lon="3.74354">
        <ele>650.79998779297</ele>
        <time>2013-01-04T11:02:22Z</time>
      </trkpt>
      <trkpt lat="45.38814" lon="3.74348">
        <ele>650.5</ele>
        <time>2013-01-04T11:02:25Z</time>
      </trkpt>
      <trkpt lat="45.38808" lon="3.74342">
        <ele>650.40002441406</ele>
        <time>2013-01-04T11:02:28Z</time>
      </trkpt>
      <trkpt lat="45.38804" lon="3.74342">
        <ele>650.70001220703</ele>
        <time>2013-01-04T11:02:30Z</time>
      </trkpt>
      <trkpt lat="45.38798" lon="3.7434">
        <ele>650.40002441406</ele>
        <time>2013-01-04T11:02:33Z</time>
      </trkpt>
      <trkpt lat="45.38792" lon="3.7434">
        <ele>650.29998779297</ele>
        <time>2013-01-04T11:02:36Z</time>
      </trkpt>
      <trkpt lat="45.38785" lon="3.74341">
        <ele>650</ele>
        <time>2013-01-04T11:02:39Z</time>
      </trkpt>
      <trkpt lat="45.3878" lon="3.74342">
        <ele>648.40002441406</ele>
        <time>2013-01-04T11:02:42Z</time>
      </trkpt>
      <trkpt lat="45.38774" lon="3.74343">
        <ele>647.70001220703</ele>
        <time>2013-01-04T11:02:45Z</time>
      </trkpt>
      <trkpt lat="45.38769" lon="3.74345">
        <ele>646.59997558594</ele>
        <time>2013-01-04T11:02:48Z</time>
      </trkpt>
      <trkpt lat="45.38764" lon="3.74344">
        <ele>647.20001220703</ele>
        <time>2013-01-04T11:02:50Z</time>
      </trkpt>
      <trkpt lat="45.38759" lon="3.74345">
        <ele>646.40002441406</ele>
        <time>2013-01-04T11:02:53Z</time>
      </trkpt>
      <trkpt lat="45.38753" lon="3.74346">
        <ele>646.70001220703</ele>
        <time>2013-01-04T11:02:56Z</time>
      </trkpt>
      <trkpt lat="45.38747" lon="3.74346">
        <ele>646.09997558594</ele>
        <time>2013-01-04T11:02:59Z</time>
      </trkpt>
      <trkpt lat="45.38741" lon="3.74346">
        <ele>645.70001220703</ele>
        <time>2013-01-04T11:03:03Z</time>
      </trkpt>
      <trkpt lat="45.38736" lon="3.74345">
        <ele>645.79998779297</ele>
        <time>2013-01-04T11:03:05Z</time>
      </trkpt>
      <trkpt lat="45.38731" lon="3.74345">
        <ele>646.29998779297</ele>
        <time>2013-01-04T11:03:07Z</time>
      </trkpt>
      <trkpt lat="45.38725" lon="3.74345">
        <ele>647.20001220703</ele>
        <time>2013-01-04T11:03:10Z</time>
      </trkpt>
      <trkpt lat="45.38719" lon="3.74345">
        <ele>647.90002441406</ele>
        <time>2013-01-04T11:03:13Z</time>
      </trkpt>
      <trkpt lat="45.38715" lon="3.74345">
        <ele>649.09997558594</ele>
        <time>2013-01-04T11:03:15Z</time>
      </trkpt>
      <trkpt lat="45.3871" lon="3.74347">
        <ele>648</ele>
        <time>2013-01-04T11:03:18Z</time>
      </trkpt>
      <trkpt lat="45.38705" lon="3.74347">
        <ele>647.40002441406</ele>
        <time>2013-01-04T11:03:20Z</time>
      </trkpt>
      <trkpt lat="45.38699" lon="3.74347">
        <ele>647.40002441406</ele>
        <time>2013-01-04T11:03:23Z</time>
      </trkpt>
      <trkpt lat="45.38693" lon="3.74347">
        <ele>646.79998779297</ele>
        <time>2013-01-04T11:03:26Z</time>
      </trkpt>
      <trkpt lat="45.38689" lon="3.74348">
        <ele>645.20001220703</ele>
        <time>2013-01-04T11:03:29Z</time>
      </trkpt>
      <trkpt lat="45.38683" lon="3.74348">
        <ele>645.70001220703</ele>
        <time>2013-01-04T11:03:32Z</time>
      </trkpt>
      <trkpt lat="45.38677" lon="3.74349">
        <ele>645.5</ele>
        <time>2013-01-04T11:03:35Z</time>
      </trkpt>
      <trkpt lat="45.38672" lon="3.74348">
        <ele>646.59997558594</ele>
        <time>2013-01-04T11:03:37Z</time>
      </trkpt>
      <trkpt lat="45.3864" lon="3.74348">
        <ele>649.59997558594</ele>
        <time>2013-01-04T11:03:54Z</time>
      </trkpt>
      <trkpt lat="45.38634" lon="3.74348">
        <ele>645.79998779297</ele>
        <time>2013-01-04T11:03:57Z</time>
      </trkpt>
      <trkpt lat="45.3863" lon="3.74345">
        <ele>645</ele>
        <time>2013-01-04T11:03:59Z</time>
      </trkpt>
      <trkpt lat="45.38625" lon="3.74348">
        <ele>644.59997558594</ele>
        <time>2013-01-04T11:04:02Z</time>
      </trkpt>
      <trkpt lat="45.38619" lon="3.74347">
        <ele>645.29998779297</ele>
        <time>2013-01-04T11:04:05Z</time>
      </trkpt>
      <trkpt lat="45.38614" lon="3.74347">
        <ele>645.5</ele>
        <time>2013-01-04T11:04:08Z</time>
      </trkpt>
      <trkpt lat="45.38608" lon="3.74347">
        <ele>646.29998779297</ele>
        <time>2013-01-04T11:04:10Z</time>
      </trkpt>
      <trkpt lat="45.38597" lon="3.74349">
        <ele>646.79998779297</ele>
        <time>2013-01-04T11:04:16Z</time>
      </trkpt>
      <trkpt lat="45.38592" lon="3.7435">
        <ele>647.29998779297</ele>
        <time>2013-01-04T11:04:19Z</time>
      </trkpt>
      <trkpt lat="45.38587" lon="3.74349">
        <ele>647.40002441406</ele>
        <time>2013-01-04T11:04:22Z</time>
      </trkpt>
      <trkpt lat="45.38582" lon="3.7435">
        <ele>647.20001220703</ele>
        <time>2013-01-04T11:04:25Z</time>
      </trkpt>
      <trkpt lat="45.38577" lon="3.7435">
        <ele>647.5</ele>
        <time>2013-01-04T11:04:27Z</time>
      </trkpt>
      <trkpt lat="45.38572" lon="3.7435">
        <ele>646.59997558594</ele>
        <time>2013-01-04T11:04:30Z</time>
      </trkpt>
      <trkpt lat="45.38566" lon="3.74351">
        <ele>647.29998779297</ele>
        <time>2013-01-04T11:04:33Z</time>
      </trkpt>
      <trkpt lat="45.3856" lon="3.7435">
        <ele>646.79998779297</ele>
        <time>2013-01-04T11:04:36Z</time>
      </trkpt>
      <trkpt lat="45.38553" lon="3.74351">
        <ele>646.20001220703</ele>
        <time>2013-01-04T11:04:39Z</time>
      </trkpt>
      <trkpt lat="45.38547" lon="3.74351">
        <ele>645.59997558594</ele>
        <time>2013-01-04T11:04:43Z</time>
      </trkpt>
      <trkpt lat="45.38541" lon="3.74351">
        <ele>645.70001220703</ele>
        <time>2013-01-04T11:04:46Z</time>
      </trkpt>
      <trkpt lat="45.38536" lon="3.74351">
        <ele>646</ele>
        <time>2013-01-04T11:04:48Z</time>
      </trkpt>
      <trkpt lat="45.38531" lon="3.74352">
        <ele>645.79998779297</ele>
        <time>2013-01-04T11:04:50Z</time>
      </trkpt>
      <trkpt lat="45.38525" lon="3.74352">
        <ele>646.79998779297</ele>
        <time>2013-01-04T11:04:53Z</time>
      </trkpt>
      <trkpt lat="45.38519" lon="3.74353">
        <ele>647.29998779297</ele>
        <time>2013-01-04T11:04:56Z</time>
      </trkpt>
      <trkpt lat="45.38513" lon="3.74352">
        <ele>647.70001220703</ele>
        <time>2013-01-04T11:04:59Z</time>
      </trkpt>
      <trkpt lat="45.38506" lon="3.74354">
        <ele>648.59997558594</ele>
        <time>2013-01-04T11:05:02Z</time>
      </trkpt>
      <trkpt lat="45.385" lon="3.74354">
        <ele>649.09997558594</ele>
        <time>2013-01-04T11:05:05Z</time>
      </trkpt>
      <trkpt lat="45.38495" lon="3.74355">
        <ele>650.59997558594</ele>
        <time>2013-01-04T11:05:07Z</time>
      </trkpt>
      <trkpt lat="45.38489" lon="3.74356">
        <ele>651.5</ele>
        <time>2013-01-04T11:05:09Z</time>
      </trkpt>
      <trkpt lat="45.38484" lon="3.74356">
        <ele>652.09997558594</ele>
        <time>2013-01-04T11:05:11Z</time>
      </trkpt>
      <trkpt lat="45.38475" lon="3.74362">
        <ele>652.79998779297</ele>
        <time>2013-01-04T11:05:17Z</time>
      </trkpt>
      <trkpt lat="45.3847" lon="3.74365">
        <ele>653.5</ele>
        <time>2013-01-04T11:05:20Z</time>
      </trkpt>
      <trkpt lat="45.38464" lon="3.74366">
        <ele>653.09997558594</ele>
        <time>2013-01-04T11:05:23Z</time>
      </trkpt>
      <trkpt lat="45.3846" lon="3.74371">
        <ele>652.09997558594</ele>
        <time>2013-01-04T11:05:27Z</time>
      </trkpt>
      <trkpt lat="45.38455" lon="3.74374">
        <ele>653.09997558594</ele>
        <time>2013-01-04T11:05:30Z</time>
      </trkpt>
      <trkpt lat="45.38451" lon="3.74378">
        <ele>649.09997558594</ele>
        <time>2013-01-04T11:05:34Z</time>
      </trkpt>
      <trkpt lat="45.38447" lon="3.74383">
        <ele>645.59997558594</ele>
        <time>2013-01-04T11:05:40Z</time>
      </trkpt>
      <trkpt lat="45.38443" lon="3.74383">
        <ele>644.29998779297</ele>
        <time>2013-01-04T11:05:42Z</time>
      </trkpt>
      <trkpt lat="45.38434" lon="3.74389">
        <ele>647.79998779297</ele>
        <time>2013-01-04T11:05:46Z</time>
      </trkpt>
      <trkpt lat="45.38427" lon="3.7439">
        <ele>648.20001220703</ele>
        <time>2013-01-04T11:05:49Z</time>
      </trkpt>
      <trkpt lat="45.38423" lon="3.74393">
        <ele>647.40002441406</ele>
        <time>2013-01-04T11:05:53Z</time>
      </trkpt>
      <trkpt lat="45.38418" lon="3.74394">
        <ele>646.5</ele>
        <time>2013-01-04T11:05:55Z</time>
      </trkpt>
      <trkpt lat="45.38413" lon="3.74397">
        <ele>646.59997558594</ele>
        <time>2013-01-04T11:05:57Z</time>
      </trkpt>
      <trkpt lat="45.38408" lon="3.74398">
        <ele>647.90002441406</ele>
        <time>2013-01-04T11:05:59Z</time>
      </trkpt>
      <trkpt lat="45.38403" lon="3.744">
        <ele>648.40002441406</ele>
        <time>2013-01-04T11:06:02Z</time>
      </trkpt>
      <trkpt lat="45.38398" lon="3.74404">
        <ele>648.29998779297</ele>
        <time>2013-01-04T11:06:05Z</time>
      </trkpt>
      <trkpt lat="45.38394" lon="3.74411">
        <ele>650.40002441406</ele>
        <time>2013-01-04T11:06:08Z</time>
      </trkpt>
      <trkpt lat="45.38395" lon="3.74418">
        <ele>651.79998779297</ele>
        <time>2013-01-04T11:06:10Z</time>
      </trkpt>
      <trkpt lat="45.38401" lon="3.7442">
        <ele>651.5</ele>
        <time>2013-01-04T11:06:13Z</time>
      </trkpt>
      <trkpt lat="45.38404" lon="3.74425">
        <ele>651.59997558594</ele>
        <time>2013-01-04T11:06:15Z</time>
      </trkpt>
      <trkpt lat="45.384" lon="3.74433">
        <ele>652.09997558594</ele>
        <time>2013-01-04T11:06:17Z</time>
      </trkpt>
      <trkpt lat="45.38403" lon="3.74439">
        <ele>649.59997558594</ele>
        <time>2013-01-04T11:06:19Z</time>
      </trkpt>
      <trkpt lat="45.38382" lon="3.74457">
        <ele>646.59997558594</ele>
        <time>2013-01-04T11:06:33Z</time>
      </trkpt>
      <trkpt lat="45.38379" lon="3.74463">
        <ele>647.90002441406</ele>
        <time>2013-01-04T11:06:34Z</time>
      </trkpt>
      <trkpt lat="45.38376" lon="3.74468">
        <ele>648.40002441406</ele>
        <time>2013-01-04T11:06:38Z</time>
      </trkpt>
      <trkpt lat="45.38371" lon="3.74465">
        <ele>646.09997558594</ele>
        <time>2013-01-04T11:06:41Z</time>
      </trkpt>
      <trkpt lat="45.38368" lon="3.74472">
        <ele>644.70001220703</ele>
        <time>2013-01-04T11:06:43Z</time>
      </trkpt>
      <trkpt lat="45.38364" lon="3.74474">
        <ele>645</ele>
        <time>2013-01-04T11:06:46Z</time>
      </trkpt>
      <trkpt lat="45.38358" lon="3.74479">
        <ele>647.90002441406</ele>
        <time>2013-01-04T11:06:48Z</time>
      </trkpt>
      <trkpt lat="45.38355" lon="3.74488">
        <ele>647.59997558594</ele>
        <time>2013-01-04T11:06:51Z</time>
      </trkpt>
      <trkpt lat="45.38351" lon="3.74499">
        <ele>646.70001220703</ele>
        <time>2013-01-04T11:06:56Z</time>
      </trkpt>
      <trkpt lat="45.38347" lon="3.74503">
        <ele>648.59997558594</ele>
        <time>2013-01-04T11:06:58Z</time>
      </trkpt>
      <trkpt lat="45.38342" lon="3.74503">
        <ele>648</ele>
        <time>2013-01-04T11:07:00Z</time>
      </trkpt>
      <trkpt lat="45.38336" lon="3.74507">
        <ele>649.70001220703</ele>
        <time>2013-01-04T11:07:03Z</time>
      </trkpt>
      <trkpt lat="45.38332" lon="3.74507">
        <ele>649.40002441406</ele>
        <time>2013-01-04T11:07:05Z</time>
      </trkpt>
      <trkpt lat="45.38324" lon="3.74512">
        <ele>649.20001220703</ele>
        <time>2013-01-04T11:07:09Z</time>
      </trkpt>
      <trkpt lat="45.38321" lon="3.74517">
        <ele>648.5</ele>
        <time>2013-01-04T11:07:12Z</time>
      </trkpt>
      <trkpt lat="45.38316" lon="3.7452">
        <ele>647.79998779297</ele>
        <time>2013-01-04T11:07:15Z</time>
      </trkpt>
      <trkpt lat="45.3831" lon="3.74525">
        <ele>648.09997558594</ele>
        <time>2013-01-04T11:07:18Z</time>
      </trkpt>
      <trkpt lat="45.38306" lon="3.74528">
        <ele>649.20001220703</ele>
        <time>2013-01-04T11:07:20Z</time>
      </trkpt>
      <trkpt lat="45.38301" lon="3.74533">
        <ele>649.09997558594</ele>
        <time>2013-01-04T11:07:24Z</time>
      </trkpt>
      <trkpt lat="45.38294" lon="3.74544">
        <ele>649.79998779297</ele>
        <time>2013-01-04T11:07:29Z</time>
      </trkpt>
      <trkpt lat="45.38291" lon="3.74549">
        <ele>650.20001220703</ele>
        <time>2013-01-04T11:07:32Z</time>
      </trkpt>
      <trkpt lat="45.38286" lon="3.74555">
        <ele>652</ele>
        <time>2013-01-04T11:07:35Z</time>
      </trkpt>
      <trkpt lat="45.38284" lon="3.74561">
        <ele>650.70001220703</ele>
        <time>2013-01-04T11:07:39Z</time>
      </trkpt>
      <trkpt lat="45.38288" lon="3.74568">
        <ele>649.5</ele>
        <time>2013-01-04T11:07:44Z</time>
      </trkpt>
      <trkpt lat="45.38287" lon="3.74586">
        <ele>649.90002441406</ele>
        <time>2013-01-04T11:07:53Z</time>
      </trkpt>
      <trkpt lat="45.38284" lon="3.74593">
        <ele>647.5</ele>
        <time>2013-01-04T11:07:56Z</time>
      </trkpt>
      <trkpt lat="45.38281" lon="3.74599">
        <ele>647.29998779297</ele>
        <time>2013-01-04T11:07:58Z</time>
      </trkpt>
      <trkpt lat="45.38278" lon="3.74606">
        <ele>647.09997558594</ele>
        <time>2013-01-04T11:08:01Z</time>
      </trkpt>
      <trkpt lat="45.38273" lon="3.74616">
        <ele>644.40002441406</ele>
        <time>2013-01-04T11:08:05Z</time>
      </trkpt>
      <trkpt lat="45.38269" lon="3.74625">
        <ele>644</ele>
        <time>2013-01-04T11:08:08Z</time>
      </trkpt>
      <trkpt lat="45.38268" lon="3.74635">
        <ele>642.90002441406</ele>
        <time>2013-01-04T11:08:12Z</time>
      </trkpt>
      <trkpt lat="45.38266" lon="3.7465">
        <ele>644.59997558594</ele>
        <time>2013-01-04T11:08:18Z</time>
      </trkpt>
      <trkpt lat="45.38263" lon="3.74656">
        <ele>645.79998779297</ele>
        <time>2013-01-04T11:08:21Z</time>
      </trkpt>
      <trkpt lat="45.3826" lon="3.74665">
        <ele>647.40002441406</ele>
        <time>2013-01-04T11:08:24Z</time>
      </trkpt>
      <trkpt lat="45.38257" lon="3.74673">
        <ele>647.5</ele>
        <time>2013-01-04T11:08:27Z</time>
      </trkpt>
      <trkpt lat="45.38254" lon="3.7468">
        <ele>645.70001220703</ele>
        <time>2013-01-04T11:08:31Z</time>
      </trkpt>
      <trkpt lat="45.38254" lon="3.74688">
        <ele>643.59997558594</ele>
        <time>2013-01-04T11:08:34Z</time>
      </trkpt>
      <trkpt lat="45.38251" lon="3.74694">
        <ele>644.40002441406</ele>
        <time>2013-01-04T11:08:38Z</time>
      </trkpt>
      <trkpt lat="45.38249" lon="3.74701">
        <ele>643.70001220703</ele>
        <time>2013-01-04T11:08:41Z</time>
      </trkpt>
      <trkpt lat="45.38249" lon="3.7471">
        <ele>641.20001220703</ele>
        <time>2013-01-04T11:08:45Z</time>
      </trkpt>
      <trkpt lat="45.38247" lon="3.74718">
        <ele>640.29998779297</ele>
        <time>2013-01-04T11:08:48Z</time>
      </trkpt>
      <trkpt lat="45.38243" lon="3.74725">
        <ele>642.79998779297</ele>
        <time>2013-01-04T11:08:51Z</time>
      </trkpt>
      <trkpt lat="45.38241" lon="3.74732">
        <ele>643.5</ele>
        <time>2013-01-04T11:08:53Z</time>
      </trkpt>
      <trkpt lat="45.38238" lon="3.74737">
        <ele>644.90002441406</ele>
        <time>2013-01-04T11:08:56Z</time>
      </trkpt>
      <trkpt lat="45.38233" lon="3.74743">
        <ele>648.5</ele>
        <time>2013-01-04T11:08:58Z</time>
      </trkpt>
      <trkpt lat="45.38231" lon="3.74749">
        <ele>647.5</ele>
        <time>2013-01-04T11:09:01Z</time>
      </trkpt>
      <trkpt lat="45.38228" lon="3.74757">
        <ele>648.09997558594</ele>
        <time>2013-01-04T11:09:04Z</time>
      </trkpt>
      <trkpt lat="45.38224" lon="3.74762">
        <ele>648.40002441406</ele>
        <time>2013-01-04T11:09:06Z</time>
      </trkpt>
      <trkpt lat="45.38221" lon="3.74768">
        <ele>649.20001220703</ele>
        <time>2013-01-04T11:09:09Z</time>
      </trkpt>
      <trkpt lat="45.38209" lon="3.74792">
        <ele>649.5</ele>
        <time>2013-01-04T11:09:18Z</time>
      </trkpt>
      <trkpt lat="45.38204" lon="3.74799">
        <ele>650.09997558594</ele>
        <time>2013-01-04T11:09:21Z</time>
      </trkpt>
      <trkpt lat="45.38194" lon="3.74823">
        <ele>654.40002441406</ele>
        <time>2013-01-04T11:09:30Z</time>
      </trkpt>
      <trkpt lat="45.38193" lon="3.74829">
        <ele>652.79998779297</ele>
        <time>2013-01-04T11:09:32Z</time>
      </trkpt>
      <trkpt lat="45.38196" lon="3.74838">
        <ele>648.20001220703</ele>
        <time>2013-01-04T11:09:34Z</time>
      </trkpt>
      <trkpt lat="45.38195" lon="3.74847">
        <ele>646.70001220703</ele>
        <time>2013-01-04T11:09:37Z</time>
      </trkpt>
      <trkpt lat="45.38194" lon="3.74856">
        <ele>645</ele>
        <time>2013-01-04T11:09:40Z</time>
      </trkpt>
      <trkpt lat="45.38191" lon="3.74863">
        <ele>645</ele>
        <time>2013-01-04T11:09:42Z</time>
      </trkpt>
      <trkpt lat="45.3819" lon="3.74871">
        <ele>645.70001220703</ele>
        <time>2013-01-04T11:09:46Z</time>
      </trkpt>
      <trkpt lat="45.38179" lon="3.74889">
        <ele>649.79998779297</ele>
        <time>2013-01-04T11:09:58Z</time>
      </trkpt>
      <trkpt lat="45.38176" lon="3.74895">
        <ele>649.79998779297</ele>
        <time>2013-01-04T11:10:01Z</time>
      </trkpt>
      <trkpt lat="45.3817" lon="3.74896">
        <ele>647.5</ele>
        <time>2013-01-04T11:10:04Z</time>
      </trkpt>
      <trkpt lat="45.38165" lon="3.74898">
        <ele>648.29998779297</ele>
        <time>2013-01-04T11:10:06Z</time>
      </trkpt>
      <trkpt lat="45.3816" lon="3.74897">
        <ele>647.20001220703</ele>
        <time>2013-01-04T11:10:08Z</time>
      </trkpt>
      <trkpt lat="45.38157" lon="3.74892">
        <ele>644.20001220703</ele>
        <time>2013-01-04T11:10:12Z</time>
      </trkpt>
      <trkpt lat="45.38148" lon="3.74886">
        <ele>642.29998779297</ele>
        <time>2013-01-04T11:10:17Z</time>
      </trkpt>
      <trkpt lat="45.38144" lon="3.74883">
        <ele>644.90002441406</ele>
        <time>2013-01-04T11:10:19Z</time>
      </trkpt>
      <trkpt lat="45.38141" lon="3.74878">
        <ele>646.5</ele>
        <time>2013-01-04T11:10:21Z</time>
      </trkpt>
      <trkpt lat="45.38136" lon="3.74872">
        <ele>646.5</ele>
        <time>2013-01-04T11:10:25Z</time>
      </trkpt>
      <trkpt lat="45.3813" lon="3.74861">
        <ele>647.29998779297</ele>
        <time>2013-01-04T11:10:30Z</time>
      </trkpt>
      <trkpt lat="45.38126" lon="3.74853">
        <ele>648.09997558594</ele>
        <time>2013-01-04T11:10:32Z</time>
      </trkpt>
      <trkpt lat="45.38123" lon="3.74847">
        <ele>648.79998779297</ele>
        <time>2013-01-04T11:10:35Z</time>
      </trkpt>
      <trkpt lat="45.38117" lon="3.74845">
        <ele>641.5</ele>
        <time>2013-01-04T11:10:39Z</time>
      </trkpt>
      <trkpt lat="45.38114" lon="3.74837">
        <ele>641</ele>
        <time>2013-01-04T11:10:42Z</time>
      </trkpt>
      <trkpt lat="45.38108" lon="3.74828">
        <ele>641.29998779297</ele>
        <time>2013-01-04T11:10:47Z</time>
      </trkpt>
      <trkpt lat="45.38105" lon="3.74822">
        <ele>641.5</ele>
        <time>2013-01-04T11:10:50Z</time>
      </trkpt>
      <trkpt lat="45.381" lon="3.74819">
        <ele>643.59997558594</ele>
        <time>2013-01-04T11:10:54Z</time>
      </trkpt>
      <trkpt lat="45.38096" lon="3.74811">
        <ele>646.09997558594</ele>
        <time>2013-01-04T11:10:58Z</time>
      </trkpt>
      <trkpt lat="45.38092" lon="3.74806">
        <ele>646.79998779297</ele>
        <time>2013-01-04T11:11:00Z</time>
      </trkpt>
      <trkpt lat="45.38089" lon="3.748">
        <ele>649.09997558594</ele>
        <time>2013-01-04T11:11:03Z</time>
      </trkpt>
      <trkpt lat="45.38084" lon="3.74792">
        <ele>650.09997558594</ele>
        <time>2013-01-04T11:11:06Z</time>
      </trkpt>
      <trkpt lat="45.3808" lon="3.74787">
        <ele>649.79998779297</ele>
        <time>2013-01-04T11:11:10Z</time>
      </trkpt>
      <trkpt lat="45.38075" lon="3.74781">
        <ele>651.29998779297</ele>
        <time>2013-01-04T11:11:12Z</time>
      </trkpt>
      <trkpt lat="45.3807" lon="3.7478">
        <ele>650.40002441406</ele>
        <time>2013-01-04T11:11:16Z</time>
      </trkpt>
      <trkpt lat="45.38066" lon="3.74776">
        <ele>651.5</ele>
        <time>2013-01-04T11:11:18Z</time>
      </trkpt>
      <trkpt lat="45.38062" lon="3.74771">
        <ele>653.70001220703</ele>
        <time>2013-01-04T11:11:21Z</time>
      </trkpt>
      <trkpt lat="45.38052" lon="3.74762">
        <ele>654.70001220703</ele>
        <time>2013-01-04T11:11:28Z</time>
      </trkpt>
      <trkpt lat="45.38048" lon="3.74758">
        <ele>654.5</ele>
        <time>2013-01-04T11:11:30Z</time>
      </trkpt>
      <trkpt lat="45.38043" lon="3.74752">
        <ele>657.5</ele>
        <time>2013-01-04T11:11:32Z</time>
      </trkpt>
      <trkpt lat="45.38039" lon="3.74744">
        <ele>659.59997558594</ele>
        <time>2013-01-04T11:11:35Z</time>
      </trkpt>
      <trkpt lat="45.38035" lon="3.7474">
        <ele>661.09997558594</ele>
        <time>2013-01-04T11:11:37Z</time>
      </trkpt>
      <trkpt lat="45.38021" lon="3.74725">
        <ele>657.70001220703</ele>
        <time>2013-01-04T11:11:46Z</time>
      </trkpt>
      <trkpt lat="45.38018" lon="3.74721">
        <ele>656.70001220703</ele>
        <time>2013-01-04T11:11:48Z</time>
      </trkpt>
      <trkpt lat="45.38013" lon="3.74716">
        <ele>656.70001220703</ele>
        <time>2013-01-04T11:11:51Z</time>
      </trkpt>
      <trkpt lat="45.38008" lon="3.7471">
        <ele>656.59997558594</ele>
        <time>2013-01-04T11:11:54Z</time>
      </trkpt>
      <trkpt lat="45.38004" lon="3.74704">
        <ele>656.90002441406</ele>
        <time>2013-01-04T11:11:57Z</time>
      </trkpt>
      <trkpt lat="45.37999" lon="3.74698">
        <ele>656.40002441406</ele>
        <time>2013-01-04T11:12:00Z</time>
      </trkpt>
      <trkpt lat="45.37995" lon="3.74691">
        <ele>657.09997558594</ele>
        <time>2013-01-04T11:12:03Z</time>
      </trkpt>
      <trkpt lat="45.37992" lon="3.74683">
        <ele>657.90002441406</ele>
        <time>2013-01-04T11:12:06Z</time>
      </trkpt>
      <trkpt lat="45.37991" lon="3.74677">
        <ele>659.29998779297</ele>
        <time>2013-01-04T11:12:09Z</time>
      </trkpt>
      <trkpt lat="45.37987" lon="3.74673">
        <ele>659</ele>
        <time>2013-01-04T11:12:12Z</time>
      </trkpt>
      <trkpt lat="45.37984" lon="3.74666">
        <ele>659</ele>
        <time>2013-01-04T11:12:15Z</time>
      </trkpt>
      <trkpt lat="45.37981" lon="3.74659">
        <ele>658.70001220703</ele>
        <time>2013-01-04T11:12:18Z</time>
      </trkpt>
      <trkpt lat="45.37977" lon="3.74653">
        <ele>658.29998779297</ele>
        <time>2013-01-04T11:12:21Z</time>
      </trkpt>
      <trkpt lat="45.37973" lon="3.74647">
        <ele>659</ele>
        <time>2013-01-04T11:12:24Z</time>
      </trkpt>
      <trkpt lat="45.37965" lon="3.74634">
        <ele>658.79998779297</ele>
        <time>2013-01-04T11:12:29Z</time>
      </trkpt>
      <trkpt lat="45.3796" lon="3.7463">
        <ele>658.90002441406</ele>
        <time>2013-01-04T11:12:32Z</time>
      </trkpt>
      <trkpt lat="45.37956" lon="3.74624">
        <ele>657.09997558594</ele>
        <time>2013-01-04T11:12:36Z</time>
      </trkpt>
      <trkpt lat="45.37952" lon="3.74617">
        <ele>658</ele>
        <time>2013-01-04T11:12:39Z</time>
      </trkpt>
      <trkpt lat="45.37949" lon="3.74609">
        <ele>658.90002441406</ele>
        <time>2013-01-04T11:12:42Z</time>
      </trkpt>
      <trkpt lat="45.37947" lon="3.74602">
        <ele>661.09997558594</ele>
        <time>2013-01-04T11:12:45Z</time>
      </trkpt>
      <trkpt lat="45.37935" lon="3.74581">
        <ele>663.70001220703</ele>
        <time>2013-01-04T11:12:52Z</time>
      </trkpt>
      <trkpt lat="45.37927" lon="3.74586">
        <ele>658</ele>
        <time>2013-01-04T11:12:55Z</time>
      </trkpt>
      <trkpt lat="45.37922" lon="3.74578">
        <ele>660</ele>
        <time>2013-01-04T11:12:58Z</time>
      </trkpt>
    </trkseg>
  </trk>
</gpx>